ROMMA est une association bénévole à but non lucratif. Votre soutien est indispensable : ADHERER à ROMMA ou FAIRE un DON

Val-d'Arly - (73, Savoie)

Beaufortain (2050 m)   Longitude: 06° 35' 21" E   Latitude: 45° 46' 53" N Station romma n°118
 

Détail journalier du     <<     >>

Température Precipitation Humidité Vent Dir Rafale Dir. rafale Ensol.
Heure (°C) (mm) (%) (km/h) (km/h) (min)
01:00 15.60708OSO15OSO0
02:00 15.70625OSO11OSO0
03:00 15.70645NNE11NNE0
04:00 15.30644NNE11NNE0
05:00 15.00673NNE5NNO0
06:00 15.10675ENE13E0
07:00 15.30678E13E0
08:00 17.00663S11SSE50
09:00 15.80733NE8ENE60
10:00 16.50733ENE10ENE50
11:00 16.80727E15E50
12:00 18.10666ENE16NNE60
13:00 18.50638NE19NNE40
14:00 18.50616NE13ENE0
15:00 19.50449NE23NNE50
16:00 20.10489NE19NE60
17:00 19.905314NE24NNE60
18:00 19.505315NE24NE60
19:00 19.305415NNE26NNE60
20:00 17.706310ONO23NNE30
21:00 17.30644NO11ONO0
22:00 17.10633NO6NO0
23:00 16.90646O11O0
minuit 16.60669O15O0

Graphique du 22-07-2019

 

Serveur OMMA